sensor_id;sensor_type;location;lat;lon;timestamp;P1;durP1;ratioP1;P2;durP2;ratioP2
13611;SDS011;6877;51.436;6.774;2024-02-21T00:01:16;27.77;;;11.52;;
13611;SDS011;6877;51.436;6.774;2024-02-21T00:03:43;33.13;;;11.45;;
13611;SDS011;6877;51.436;6.774;2024-02-21T00:06:14;24.45;;;11.07;;
13611;SDS011;6877;51.436;6.774;2024-02-21T00:08:40;27.55;;;11.65;;
13611;SDS011;6877;51.436;6.774;2024-02-21T00:11:12;30.48;;;10.57;;
13611;SDS011;6877;51.436;6.774;2024-02-21T00:13:43;27.10;;;12.45;;
13611;SDS011;6877;51.436;6.774;2024-02-21T00:16:15;32.40;;;12.23;;
13611;SDS011;6877;51.436;6.774;2024-02-21T00:18:42;28.13;;;11.52;;
13611;SDS011;6877;51.436;6.774;2024-02-21T00:21:14;36.90;;;13.15;;
13611;SDS011;6877;51.436;6.774;2024-02-21T00:23:44;35.60;;;11.23;;
13611;SDS011;6877;51.436;6.774;2024-02-21T00:26:15;28.35;;;12.18;;
13611;SDS011;6877;51.436;6.774;2024-02-21T00:28:41;32.65;;;12.20;;
13611;SDS011;6877;51.436;6.774;2024-02-21T00:31:08;30.63;;;11.68;;
13611;SDS011;6877;51.436;6.774;2024-02-21T00:33:34;26.80;;;12.10;;
13611;SDS011;6877;51.436;6.774;2024-02-21T00:36:06;29.60;;;12.25;;
13611;SDS011;6877;51.436;6.774;2024-02-21T00:38:32;29.67;;;12.18;;
13611;SDS011;6877;51.436;6.774;2024-02-21T00:40:59;39.63;;;10.10;;
13611;SDS011;6877;51.436;6.774;2024-02-21T00:43:26;34.08;;;10.95;;
13611;SDS011;6877;51.436;6.774;2024-02-21T00:45:52;25.25;;;10.73;;
13611;SDS011;6877;51.436;6.774;2024-02-21T00:48:23;30.80;;;10.65;;
13611;SDS011;6877;51.436;6.774;2024-02-21T00:50:50;26.25;;;12.70;;
13611;SDS011;6877;51.436;6.774;2024-02-21T00:53:21;35.58;;;11.50;;
13611;SDS011;6877;51.436;6.774;2024-02-21T00:55:53;29.08;;;12.75;;
13611;SDS011;6877;51.436;6.774;2024-02-21T00:58:19;24.40;;;12.00;;
13611;SDS011;6877;51.436;6.774;2024-02-21T01:00:51;35.22;;;11.52;;
13611;SDS011;6877;51.436;6.774;2024-02-21T01:03:22;32.20;;;10.85;;
13611;SDS011;6877;51.436;6.774;2024-02-21T01:05:53;22.17;;;10.90;;
13611;SDS011;6877;51.436;6.774;2024-02-21T01:08:25;27.58;;;11.15;;
13611;SDS011;6877;51.436;6.774;2024-02-21T01:10:56;28.55;;;11.57;;
13611;SDS011;6877;51.436;6.774;2024-02-21T01:13:22;42.53;;;11.60;;
13611;SDS011;6877;51.436;6.774;2024-02-21T01:15:49;26.70;;;11.07;;
13611;SDS011;6877;51.436;6.774;2024-02-21T01:18:15;33.50;;;11.50;;
13611;SDS011;6877;51.436;6.774;2024-02-21T01:20:47;25.75;;;10.30;;
13611;SDS011;6877;51.436;6.774;2024-02-21T01:23:18;30.05;;;10.75;;
13611;SDS011;6877;51.436;6.774;2024-02-21T01:25:45;27.80;;;10.45;;
13611;SDS011;6877;51.436;6.774;2024-02-21T01:28:11;25.90;;;11.07;;
13611;SDS011;6877;51.436;6.774;2024-02-21T01:30:42;30.63;;;11.32;;
13611;SDS011;6877;51.436;6.774;2024-02-21T01:33:09;32.08;;;10.80;;
13611;SDS011;6877;51.436;6.774;2024-02-21T01:35:35;29.67;;;10.85;;
13611;SDS011;6877;51.436;6.774;2024-02-21T01:38:03;25.58;;;9.38;;
13611;SDS011;6877;51.436;6.774;2024-02-21T01:40:35;24.90;;;10.82;;
13611;SDS011;6877;51.436;6.774;2024-02-21T01:43:03;30.77;;;10.02;;
13611;SDS011;6877;51.436;6.774;2024-02-21T01:45:30;28.40;;;10.20;;
13611;SDS011;6877;51.436;6.774;2024-02-21T01:48:01;23.20;;;10.90;;
13611;SDS011;6877;51.436;6.774;2024-02-21T01:50:28;23.98;;;9.80;;
13611;SDS011;6877;51.436;6.774;2024-02-21T01:53:00;33.92;;;10.77;;
13611;SDS011;6877;51.436;6.774;2024-02-21T01:55:26;32.33;;;10.27;;
13611;SDS011;6877;51.436;6.774;2024-02-21T01:57:52;23.90;;;9.65;;
13611;SDS011;6877;51.436;6.774;2024-02-21T02:00:24;25.77;;;9.85;;
13611;SDS011;6877;51.436;6.774;2024-02-21T02:02:50;28.60;;;10.82;;
13611;SDS011;6877;51.436;6.774;2024-02-21T02:05:17;31.15;;;9.93;;
13611;SDS011;6877;51.436;6.774;2024-02-21T02:07:47;17.30;;;8.75;;
13611;SDS011;6877;51.436;6.774;2024-02-21T02:10:18;22.50;;;8.25;;
13611;SDS011;6877;51.436;6.774;2024-02-21T02:12:44;19.95;;;9.40;;
13611;SDS011;6877;51.436;6.774;2024-02-21T02:15:11;20.52;;;9.20;;
13611;SDS011;6877;51.436;6.774;2024-02-21T02:17:42;30.35;;;11.70;;
13611;SDS011;6877;51.436;6.774;2024-02-21T02:20:14;23.50;;;9.73;;
13611;SDS011;6877;51.436;6.774;2024-02-21T02:22:45;27.27;;;10.35;;
13611;SDS011;6877;51.436;6.774;2024-02-21T02:25:18;32.25;;;9.63;;
13611;SDS011;6877;51.436;6.774;2024-02-21T02:27:45;30.27;;;10.93;;
13611;SDS011;6877;51.436;6.774;2024-02-21T02:30:12;28.80;;;11.73;;
13611;SDS011;6877;51.436;6.774;2024-02-21T02:32:38;27.55;;;9.75;;
13611;SDS011;6877;51.436;6.774;2024-02-21T02:35:10;29.33;;;11.55;;
13611;SDS011;6877;51.436;6.774;2024-02-21T02:37:36;27.73;;;10.98;;
13611;SDS011;6877;51.436;6.774;2024-02-21T02:40:09;29.95;;;11.43;;
13611;SDS011;6877;51.436;6.774;2024-02-21T02:42:41;25.55;;;10.82;;
13611;SDS011;6877;51.436;6.774;2024-02-21T02:45:08;27.95;;;11.65;;
13611;SDS011;6877;51.436;6.774;2024-02-21T02:47:35;28.48;;;10.50;;
13611;SDS011;6877;51.436;6.774;2024-02-21T02:50:02;32.85;;;11.23;;
13611;SDS011;6877;51.436;6.774;2024-02-21T02:52:33;26.63;;;12.40;;
13611;SDS011;6877;51.436;6.774;2024-02-21T02:55:00;24.30;;;10.98;;
13611;SDS011;6877;51.436;6.774;2024-02-21T02:57:28;22.33;;;11.48;;
13611;SDS011;6877;51.436;6.774;2024-02-21T02:59:59;31.00;;;10.73;;
13611;SDS011;6877;51.436;6.774;2024-02-21T03:02:25;21.48;;;9.40;;
13611;SDS011;6877;51.436;6.774;2024-02-21T03:04:57;28.38;;;11.25;;
13611;SDS011;6877;51.436;6.774;2024-02-21T03:07:24;25.95;;;11.50;;
13611;SDS011;6877;51.436;6.774;2024-02-21T03:09:56;31.60;;;12.20;;
13611;SDS011;6877;51.436;6.774;2024-02-21T03:12:27;26.95;;;12.10;;
13611;SDS011;6877;51.436;6.774;2024-02-21T03:14:55;32.38;;;11.27;;
13611;SDS011;6877;51.436;6.774;2024-02-21T03:17:21;36.90;;;11.75;;
13611;SDS011;6877;51.436;6.774;2024-02-21T03:19:48;29.23;;;12.70;;
13611;SDS011;6877;51.436;6.774;2024-02-21T03:22:16;36.10;;;13.77;;
13611;SDS011;6877;51.436;6.774;2024-02-21T03:24:47;31.42;;;12.95;;
13611;SDS011;6877;51.436;6.774;2024-02-21T03:27:18;28.58;;;12.65;;
13611;SDS011;6877;51.436;6.774;2024-02-21T03:29:50;30.38;;;10.82;;
13611;SDS011;6877;51.436;6.774;2024-02-21T03:32:16;31.98;;;12.43;;
13611;SDS011;6877;51.436;6.774;2024-02-21T03:34:43;27.83;;;12.90;;
13611;SDS011;6877;51.436;6.774;2024-02-21T03:37:09;27.70;;;11.55;;
13611;SDS011;6877;51.436;6.774;2024-02-21T03:39:35;32.25;;;12.60;;
13611;SDS011;6877;51.436;6.774;2024-02-21T03:42:08;26.83;;;11.43;;
13611;SDS011;6877;51.436;6.774;2024-02-21T03:44:34;23.98;;;11.30;;
13611;SDS011;6877;51.436;6.774;2024-02-21T03:47:01;29.17;;;10.57;;
13611;SDS011;6877;51.436;6.774;2024-02-21T03:49:28;25.00;;;10.00;;
13611;SDS011;6877;51.436;6.774;2024-02-21T03:51:55;30.40;;;11.98;;
13611;SDS011;6877;51.436;6.774;2024-02-21T03:54:21;24.83;;;10.25;;
13611;SDS011;6877;51.436;6.774;2024-02-21T03:56:48;21.48;;;9.18;;
13611;SDS011;6877;51.436;6.774;2024-02-21T03:59:20;23.15;;;10.25;;
13611;SDS011;6877;51.436;6.774;2024-02-21T04:01:52;29.20;;;10.52;;
13611;SDS011;6877;51.436;6.774;2024-02-21T04:04:24;22.88;;;10.70;;
13611;SDS011;6877;51.436;6.774;2024-02-21T04:06:55;28.38;;;11.20;;
13611;SDS011;6877;51.436;6.774;2024-02-21T04:09:22;33.38;;;10.07;;
13611;SDS011;6877;51.436;6.774;2024-02-21T04:11:53;21.02;;;9.68;;
13611;SDS011;6877;51.436;6.774;2024-02-21T04:14:20;27.85;;;11.23;;
13611;SDS011;6877;51.436;6.774;2024-02-21T04:16:46;20.85;;;9.13;;
13611;SDS011;6877;51.436;6.774;2024-02-21T04:19:13;25.42;;;9.40;;
13611;SDS011;6877;51.436;6.774;2024-02-21T04:21:44;25.15;;;9.40;;
13611;SDS011;6877;51.436;6.774;2024-02-21T04:24:10;20.73;;;8.40;;
13611;SDS011;6877;51.436;6.774;2024-02-21T04:26:42;23.23;;;10.23;;
13611;SDS011;6877;51.436;6.774;2024-02-21T04:29:09;22.20;;;9.55;;
13611;SDS011;6877;51.436;6.774;2024-02-21T04:31:36;26.27;;;10.52;;
13611;SDS011;6877;51.436;6.774;2024-02-21T04:34:02;23.80;;;8.63;;
13611;SDS011;6877;51.436;6.774;2024-02-21T04:36:34;21.70;;;10.10;;
13611;SDS011;6877;51.436;6.774;2024-02-21T04:39:00;31.00;;;9.73;;
13611;SDS011;6877;51.436;6.774;2024-02-21T04:41:26;21.48;;;10.25;;
13611;SDS011;6877;51.436;6.774;2024-02-21T04:43:53;25.95;;;8.70;;
13611;SDS011;6877;51.436;6.774;2024-02-21T04:46:19;22.92;;;8.48;;
13611;SDS011;6877;51.436;6.774;2024-02-21T04:48:51;28.30;;;9.32;;
13611;SDS011;6877;51.436;6.774;2024-02-21T04:51:22;20.45;;;8.60;;
13611;SDS011;6877;51.436;6.774;2024-02-21T04:53:54;21.92;;;9.32;;
13611;SDS011;6877;51.436;6.774;2024-02-21T04:56:20;24.20;;;9.18;;
13611;SDS011;6877;51.436;6.774;2024-02-21T04:58:51;19.23;;;9.13;;
13611;SDS011;6877;51.436;6.774;2024-02-21T05:01:18;18.77;;;8.40;;
13611;SDS011;6877;51.436;6.774;2024-02-21T05:03:49;19.55;;;8.25;;
13611;SDS011;6877;51.436;6.774;2024-02-21T05:06:21;21.38;;;9.18;;
13611;SDS011;6877;51.436;6.774;2024-02-21T05:08:47;21.73;;;9.93;;
13611;SDS011;6877;51.436;6.774;2024-02-21T05:11:18;21.77;;;9.43;;
13611;SDS011;6877;51.436;6.774;2024-02-21T05:13:50;16.50;;;8.75;;
13611;SDS011;6877;51.436;6.774;2024-02-21T05:16:16;14.88;;;8.02;;
13611;SDS011;6877;51.436;6.774;2024-02-21T05:18:48;24.58;;;8.88;;
13611;SDS011;6877;51.436;6.774;2024-02-21T05:21:19;15.13;;;7.82;;
13611;SDS011;6877;51.436;6.774;2024-02-21T05:23:46;17.63;;;7.57;;
13611;SDS011;6877;51.436;6.774;2024-02-21T05:26:19;19.23;;;9.27;;
13611;SDS011;6877;51.436;6.774;2024-02-21T05:28:46;17.30;;;7.47;;
13611;SDS011;6877;51.436;6.774;2024-02-21T05:31:12;15.93;;;8.35;;
13611;SDS011;6877;51.436;6.774;2024-02-21T05:33:40;20.73;;;7.35;;
13611;SDS011;6877;51.436;6.774;2024-02-21T05:36:11;22.48;;;7.65;;
13611;SDS011;6877;51.436;6.774;2024-02-21T05:38:44;17.90;;;6.85;;
13611;SDS011;6877;51.436;6.774;2024-02-21T05:41:16;20.63;;;7.97;;
13611;SDS011;6877;51.436;6.774;2024-02-21T05:43:42;18.42;;;8.20;;
13611;SDS011;6877;51.436;6.774;2024-02-21T05:46:13;24.92;;;8.57;;
13611;SDS011;6877;51.436;6.774;2024-02-21T05:48:40;20.17;;;6.85;;
13611;SDS011;6877;51.436;6.774;2024-02-21T05:51:06;16.40;;;7.30;;
13611;SDS011;6877;51.436;6.774;2024-02-21T05:53:38;12.57;;;7.15;;
13611;SDS011;6877;51.436;6.774;2024-02-21T05:56:13;15.63;;;7.63;;
13611;SDS011;6877;51.436;6.774;2024-02-21T05:58:40;22.73;;;7.65;;
13611;SDS011;6877;51.436;6.774;2024-02-21T06:01:11;21.38;;;11.15;;
13611;SDS011;6877;51.436;6.774;2024-02-21T06:03:38;18.63;;;7.05;;
13611;SDS011;6877;51.436;6.774;2024-02-21T06:06:09;16.75;;;6.13;;
13611;SDS011;6877;51.436;6.774;2024-02-21T06:08:41;15.52;;;7.75;;
13611;SDS011;6877;51.436;6.774;2024-02-21T06:11:07;18.23;;;7.68;;
13611;SDS011;6877;51.436;6.774;2024-02-21T06:13:37;19.67;;;8.00;;
13611;SDS011;6877;51.436;6.774;2024-02-21T06:16:05;18.60;;;9.10;;
13611;SDS011;6877;51.436;6.774;2024-02-21T06:18:32;18.40;;;7.65;;
13611;SDS011;6877;51.436;6.774;2024-02-21T06:21:01;20.02;;;7.03;;
13611;SDS011;6877;51.436;6.774;2024-02-21T06:23:27;14.95;;;7.45;;
13611;SDS011;6877;51.436;6.774;2024-02-21T06:25:54;16.48;;;7.10;;
13611;SDS011;6877;51.436;6.774;2024-02-21T06:28:25;19.90;;;6.95;;
13611;SDS011;6877;51.436;6.774;2024-02-21T06:30:52;18.25;;;7.78;;
13611;SDS011;6877;51.436;6.774;2024-02-21T06:33:18;18.58;;;6.82;;
13611;SDS011;6877;51.436;6.774;2024-02-21T06:35:53;17.10;;;6.95;;
13611;SDS011;6877;51.436;6.774;2024-02-21T06:38:25;17.55;;;7.10;;
13611;SDS011;6877;51.436;6.774;2024-02-21T06:40:51;14.27;;;6.20;;
13611;SDS011;6877;51.436;6.774;2024-02-21T06:43:18;17.63;;;7.82;;
13611;SDS011;6877;51.436;6.774;2024-02-21T06:45:47;19.05;;;8.35;;
13611;SDS011;6877;51.436;6.774;2024-02-21T06:48:21;18.92;;;6.55;;
13611;SDS011;6877;51.436;6.774;2024-02-21T06:50:48;17.15;;;6.35;;
13611;SDS011;6877;51.436;6.774;2024-02-21T06:53:19;15.73;;;7.65;;
13611;SDS011;6877;51.436;6.774;2024-02-21T06:55:51;18.50;;;7.78;;
13611;SDS011;6877;51.436;6.774;2024-02-21T06:58:17;12.73;;;6.50;;
13611;SDS011;6877;51.436;6.774;2024-02-21T07:00:43;18.52;;;7.30;;
13611;SDS011;6877;51.436;6.774;2024-02-21T07:03:10;18.23;;;6.70;;
13611;SDS011;6877;51.436;6.774;2024-02-21T07:05:41;16.08;;;7.15;;
13611;SDS011;6877;51.436;6.774;2024-02-21T07:08:13;14.32;;;6.15;;
13611;SDS011;6877;51.436;6.774;2024-02-21T07:10:44;20.33;;;8.18;;
13611;SDS011;6877;51.436;6.774;2024-02-21T07:13:10;23.92;;;7.75;;
13611;SDS011;6877;51.436;6.774;2024-02-21T07:15:42;16.60;;;5.90;;
13611;SDS011;6877;51.436;6.774;2024-02-21T07:18:08;15.05;;;6.47;;
13611;SDS011;6877;51.436;6.774;2024-02-21T07:20:35;20.00;;;7.03;;
13611;SDS011;6877;51.436;6.774;2024-02-21T07:23:03;13.73;;;6.55;;
13611;SDS011;6877;51.436;6.774;2024-02-21T07:25:30;16.15;;;6.78;;
13611;SDS011;6877;51.436;6.774;2024-02-21T07:27:56;14.15;;;5.85;;
13611;SDS011;6877;51.436;6.774;2024-02-21T07:30:28;17.92;;;6.57;;
13611;SDS011;6877;51.436;6.774;2024-02-21T07:32:54;22.05;;;6.60;;
13611;SDS011;6877;51.436;6.774;2024-02-21T07:35:20;19.00;;;6.43;;
13611;SDS011;6877;51.436;6.774;2024-02-21T07:37:47;15.10;;;5.97;;
13611;SDS011;6877;51.436;6.774;2024-02-21T07:40:14;16.27;;;6.93;;
13611;SDS011;6877;51.436;6.774;2024-02-21T07:42:41;13.23;;;6.15;;
13611;SDS011;6877;51.436;6.774;2024-02-21T07:45:08;12.50;;;5.55;;
13611;SDS011;6877;51.436;6.774;2024-02-21T07:47:36;18.73;;;6.40;;
13611;SDS011;6877;51.436;6.774;2024-02-21T07:50:08;16.45;;;6.65;;
13611;SDS011;6877;51.436;6.774;2024-02-21T07:52:34;17.45;;;6.38;;
13611;SDS011;6877;51.436;6.774;2024-02-21T07:55:01;18.50;;;7.82;;
13611;SDS011;6877;51.436;6.774;2024-02-21T07:57:27;17.48;;;7.20;;
13611;SDS011;6877;51.436;6.774;2024-02-21T07:59:54;22.60;;;8.27;;
13611;SDS011;6877;51.436;6.774;2024-02-21T08:02:25;17.02;;;6.45;;
13611;SDS011;6877;51.436;6.774;2024-02-21T08:04:56;21.30;;;6.60;;
13611;SDS011;6877;51.436;6.774;2024-02-21T08:07:23;18.45;;;7.03;;
13611;SDS011;6877;51.436;6.774;2024-02-21T08:09:49;13.20;;;6.50;;
13611;SDS011;6877;51.436;6.774;2024-02-21T08:12:16;24.58;;;8.65;;
13611;SDS011;6877;51.436;6.774;2024-02-21T08:14:47;21.85;;;8.43;;
13611;SDS011;6877;51.436;6.774;2024-02-21T08:17:18;18.45;;;7.00;;
13611;SDS011;6877;51.436;6.774;2024-02-21T08:19:50;18.38;;;6.47;;
13611;SDS011;6877;51.436;6.774;2024-02-21T08:22:21;16.25;;;5.78;;
13611;SDS011;6877;51.436;6.774;2024-02-21T08:24:48;16.75;;;6.53;;
13611;SDS011;6877;51.436;6.774;2024-02-21T08:27:14;16.35;;;6.13;;
13611;SDS011;6877;51.436;6.774;2024-02-21T08:29:41;21.42;;;7.88;;
13611;SDS011;6877;51.436;6.774;2024-02-21T08:32:12;23.52;;;6.40;;
13611;SDS011;6877;51.436;6.774;2024-02-21T08:34:39;18.15;;;6.30;;
13611;SDS011;6877;51.436;6.774;2024-02-21T08:37:05;16.80;;;5.75;;
13611;SDS011;6877;51.436;6.774;2024-02-21T08:39:32;13.70;;;6.20;;
13611;SDS011;6877;51.436;6.774;2024-02-21T08:42:03;13.27;;;5.60;;
13611;SDS011;6877;51.436;6.774;2024-02-21T08:44:30;17.23;;;7.22;;
13611;SDS011;6877;51.436;6.774;2024-02-21T08:46:56;22.50;;;7.35;;
13611;SDS011;6877;51.436;6.774;2024-02-21T08:49:28;25.95;;;7.05;;
13611;SDS011;6877;51.436;6.774;2024-02-21T08:51:59;21.20;;;6.82;;
13611;SDS011;6877;51.436;6.774;2024-02-21T08:54:31;18.90;;;6.60;;
13611;SDS011;6877;51.436;6.774;2024-02-21T08:57:01;20.52;;;6.45;;
13611;SDS011;6877;51.436;6.774;2024-02-21T08:59:32;19.75;;;8.25;;
13611;SDS011;6877;51.436;6.774;2024-02-21T09:01:59;13.32;;;6.25;;
13611;SDS011;6877;51.436;6.774;2024-02-21T09:04:30;13.65;;;5.78;;
13611;SDS011;6877;51.436;6.774;2024-02-21T09:06:57;14.95;;;7.03;;
13611;SDS011;6877;51.436;6.774;2024-02-21T09:09:28;10.38;;;5.13;;
13611;SDS011;6877;51.436;6.774;2024-02-21T09:12:00;14.52;;;6.40;;
13611;SDS011;6877;51.436;6.774;2024-02-21T09:14:37;15.80;;;7.97;;
13611;SDS011;6877;51.436;6.774;2024-02-21T09:17:06;21.63;;;7.30;;
13611;SDS011;6877;51.436;6.774;2024-02-21T09:19:38;14.65;;;5.60;;
13611;SDS011;6877;51.436;6.774;2024-02-21T09:22:04;12.00;;;4.82;;
13611;SDS011;6877;51.436;6.774;2024-02-21T09:24:31;21.25;;;5.88;;
13611;SDS011;6877;51.436;6.774;2024-02-21T09:27:02;17.63;;;5.47;;
13611;SDS011;6877;51.436;6.774;2024-02-21T09:29:29;14.85;;;5.97;;
13611;SDS011;6877;51.436;6.774;2024-02-21T09:31:55;10.82;;;5.45;;
13611;SDS011;6877;51.436;6.774;2024-02-21T09:34:26;12.60;;;6.00;;
13611;SDS011;6877;51.436;6.774;2024-02-21T09:36:53;12.93;;;6.13;;
13611;SDS011;6877;51.436;6.774;2024-02-21T09:39:25;9.77;;;4.90;;
13611;SDS011;6877;51.436;6.774;2024-02-21T09:42:02;12.68;;;4.88;;
13611;SDS011;6877;51.436;6.774;2024-02-21T09:44:37;10.25;;;4.70;;
13611;SDS011;6877;51.436;6.774;2024-02-21T09:47:33;9.05;;;4.25;;
13611;SDS011;6877;51.436;6.774;2024-02-21T09:50:06;19.67;;;4.90;;
13611;SDS011;6877;51.436;6.774;2024-02-21T09:52:38;13.18;;;4.97;;
13611;SDS011;6877;51.436;6.774;2024-02-21T09:55:10;9.82;;;5.00;;
13611;SDS011;6877;51.436;6.774;2024-02-21T09:57:43;9.40;;;4.20;;
13611;SDS011;6877;51.436;6.774;2024-02-21T10:00:15;16.20;;;4.47;;
13611;SDS011;6877;51.436;6.774;2024-02-21T10:02:52;7.63;;;4.38;;
13611;SDS011;6877;51.436;6.774;2024-02-21T10:05:19;12.30;;;4.20;;
13611;SDS011;6877;51.436;6.774;2024-02-21T10:07:50;15.18;;;5.32;;
13611;SDS011;6877;51.436;6.774;2024-02-21T10:10:17;11.68;;;4.00;;
13611;SDS011;6877;51.436;6.774;2024-02-21T10:12:52;8.68;;;3.50;;
13611;SDS011;6877;51.436;6.774;2024-02-21T10:15:22;11.35;;;4.15;;
13611;SDS011;6877;51.436;6.774;2024-02-21T10:17:57;5.30;;;3.85;;
13611;SDS011;6877;51.436;6.774;2024-02-21T10:20:29;7.90;;;3.72;;
13611;SDS011;6877;51.436;6.774;2024-02-21T10:23:02;10.05;;;3.63;;
13611;SDS011;6877;51.436;6.774;2024-02-21T10:25:39;13.00;;;3.92;;
13611;SDS011;6877;51.436;6.774;2024-02-21T10:28:14;15.40;;;3.95;;
13611;SDS011;6877;51.436;6.774;2024-02-21T10:30:50;7.72;;;3.85;;
13611;SDS011;6877;51.436;6.774;2024-02-21T10:33:18;11.60;;;4.63;;
13611;SDS011;6877;51.436;6.774;2024-02-21T10:35:48;9.38;;;3.88;;
13611;SDS011;6877;51.436;6.774;2024-02-21T10:38:15;9.80;;;3.75;;
13611;SDS011;6877;51.436;6.774;2024-02-21T10:40:47;11.18;;;4.00;;
13611;SDS011;6877;51.436;6.774;2024-02-21T10:43:14;9.25;;;3.13;;
13611;SDS011;6877;51.436;6.774;2024-02-21T10:45:49;9.25;;;4.22;;
13611;SDS011;6877;51.436;6.774;2024-02-21T10:48:20;8.93;;;4.60;;
13611;SDS011;6877;51.436;6.774;2024-02-21T10:51:02;11.90;;;3.92;;
13611;SDS011;6877;51.436;6.774;2024-02-21T10:56:29;10.60;;;4.68;;
13611;SDS011;6877;51.436;6.774;2024-02-21T10:59:00;12.40;;;3.88;;
13611;SDS011;6877;51.436;6.774;2024-02-21T11:01:29;7.32;;;3.03;;
13611;SDS011;6877;51.436;6.774;2024-02-21T11:04:04;8.20;;;5.03;;
13611;SDS011;6877;51.436;6.774;2024-02-21T11:06:38;9.20;;;3.55;;
13611;SDS011;6877;51.436;6.774;2024-02-21T11:09:11;9.80;;;3.25;;
13611;SDS011;6877;51.436;6.774;2024-02-21T11:11:43;11.13;;;3.85;;
13611;SDS011;6877;51.436;6.774;2024-02-21T11:14:21;10.10;;;4.05;;
13611;SDS011;6877;51.436;6.774;2024-02-21T11:16:48;12.65;;;4.32;;
13611;SDS011;6877;51.436;6.774;2024-02-21T11:19:21;10.65;;;3.67;;
13611;SDS011;6877;51.436;6.774;2024-02-21T11:21:55;10.20;;;4.53;;
13611;SDS011;6877;51.436;6.774;2024-02-21T11:24:31;9.88;;;3.22;;
13611;SDS011;6877;51.436;6.774;2024-02-21T11:29:49;14.07;;;4.22;;
13611;SDS011;6877;51.436;6.774;2024-02-21T11:32:20;10.57;;;3.67;;
13611;SDS011;6877;51.436;6.774;2024-02-21T11:37:31;6.75;;;3.25;;
13611;SDS011;6877;51.436;6.774;2024-02-21T11:39:59;12.70;;;5.10;;
13611;SDS011;6877;51.436;6.774;2024-02-21T11:42:27;10.80;;;4.28;;
13611;SDS011;6877;51.436;6.774;2024-02-21T11:44:56;12.00;;;3.83;;
13611;SDS011;6877;51.436;6.774;2024-02-21T11:47:23;8.07;;;3.40;;
13611;SDS011;6877;51.436;6.774;2024-02-21T11:49:55;6.60;;;4.00;;
13611;SDS011;6877;51.436;6.774;2024-02-21T11:52:22;14.27;;;3.35;;
13611;SDS011;6877;51.436;6.774;2024-02-21T11:54:56;8.30;;;4.03;;
13611;SDS011;6877;51.436;6.774;2024-02-21T11:57:36;16.33;;;3.83;;
13611;SDS011;6877;51.436;6.774;2024-02-21T12:00:15;6.47;;;4.10;;
13611;SDS011;6877;51.436;6.774;2024-02-21T12:02:50;7.68;;;3.78;;
13611;SDS011;6877;51.436;6.774;2024-02-21T12:05:18;12.43;;;3.83;;
13611;SDS011;6877;51.436;6.774;2024-02-21T12:07:46;8.50;;;4.00;;
13611;SDS011;6877;51.436;6.774;2024-02-21T12:10:12;8.30;;;3.53;;
13611;SDS011;6877;51.436;6.774;2024-02-21T12:12:44;10.07;;;3.58;;
13611;SDS011;6877;51.436;6.774;2024-02-21T12:15:16;12.05;;;4.03;;
13611;SDS011;6877;51.436;6.774;2024-02-21T12:17:44;15.65;;;4.53;;
13611;SDS011;6877;51.436;6.774;2024-02-21T12:20:11;10.50;;;4.45;;
13611;SDS011;6877;51.436;6.774;2024-02-21T12:22:42;12.40;;;4.10;;
13611;SDS011;6877;51.436;6.774;2024-02-21T12:25:17;10.30;;;4.68;;
13611;SDS011;6877;51.436;6.774;2024-02-21T12:27:52;12.80;;;4.43;;
13611;SDS011;6877;51.436;6.774;2024-02-21T12:30:19;11.18;;;4.03;;
13611;SDS011;6877;51.436;6.774;2024-02-21T12:32:46;10.80;;;4.35;;
13611;SDS011;6877;51.436;6.774;2024-02-21T12:35:17;10.93;;;3.67;;
13611;SDS011;6877;51.436;6.774;2024-02-21T12:37:45;8.85;;;3.65;;
13611;SDS011;6877;51.436;6.774;2024-02-21T12:40:11;11.73;;;4.05;;
13611;SDS011;6877;51.436;6.774;2024-02-21T12:42:44;8.85;;;4.15;;
13611;SDS011;6877;51.436;6.774;2024-02-21T12:45:11;7.53;;;4.13;;
13611;SDS011;6877;51.436;6.774;2024-02-21T12:47:43;12.80;;;3.45;;
13611;SDS011;6877;51.436;6.774;2024-02-21T12:50:09;8.38;;;4.32;;
13611;SDS011;6877;51.436;6.774;2024-02-21T12:52:35;5.05;;;3.47;;
13611;SDS011;6877;51.436;6.774;2024-02-21T12:55:02;16.17;;;4.65;;
13611;SDS011;6877;51.436;6.774;2024-02-21T12:57:29;12.23;;;3.40;;
13611;SDS011;6877;51.436;6.774;2024-02-21T12:59:55;11.38;;;3.20;;
13611;SDS011;6877;51.436;6.774;2024-02-21T13:02:21;9.75;;;3.08;;
13611;SDS011;6877;51.436;6.774;2024-02-21T13:04:48;13.73;;;3.70;;
13611;SDS011;6877;51.436;6.774;2024-02-21T13:07:14;15.77;;;4.45;;
13611;SDS011;6877;51.436;6.774;2024-02-21T13:09:46;15.65;;;4.65;;
13611;SDS011;6877;51.436;6.774;2024-02-21T13:12:12;5.65;;;3.00;;
13611;SDS011;6877;51.436;6.774;2024-02-21T13:14:39;10.07;;;3.65;;
13611;SDS011;6877;51.436;6.774;2024-02-21T13:17:10;5.10;;;3.60;;
13611;SDS011;6877;51.436;6.774;2024-02-21T13:19:42;10.00;;;4.38;;
13611;SDS011;6877;51.436;6.774;2024-02-21T13:22:08;9.75;;;3.50;;
13611;SDS011;6877;51.436;6.774;2024-02-21T13:24:35;13.63;;;3.65;;
13611;SDS011;6877;51.436;6.774;2024-02-21T13:27:07;5.13;;;3.13;;
13611;SDS011;6877;51.436;6.774;2024-02-21T13:29:33;7.35;;;2.78;;
13611;SDS011;6877;51.436;6.774;2024-02-21T13:32:04;7.45;;;3.05;;
13611;SDS011;6877;51.436;6.774;2024-02-21T13:34:32;7.45;;;2.95;;
13611;SDS011;6877;51.436;6.774;2024-02-21T13:36:59;5.97;;;3.83;;
13611;SDS011;6877;51.436;6.774;2024-02-21T13:39:25;8.07;;;3.20;;
13611;SDS011;6877;51.436;6.774;2024-02-21T13:41:52;11.43;;;3.35;;
13611;SDS011;6877;51.436;6.774;2024-02-21T13:44:23;10.20;;;3.45;;
13611;SDS011;6877;51.436;6.774;2024-02-21T13:46:55;8.43;;;3.55;;
13611;SDS011;6877;51.436;6.774;2024-02-21T13:49:21;9.75;;;3.25;;
13611;SDS011;6877;51.436;6.774;2024-02-21T13:51:48;9.77;;;3.35;;
13611;SDS011;6877;51.436;6.774;2024-02-21T13:54:19;12.32;;;3.80;;
13611;SDS011;6877;51.436;6.774;2024-02-21T13:56:47;7.63;;;3.33;;
13611;SDS011;6877;51.436;6.774;2024-02-21T13:59:18;5.55;;;3.47;;
13611;SDS011;6877;51.436;6.774;2024-02-21T14:01:45;9.18;;;3.45;;
13611;SDS011;6877;51.436;6.774;2024-02-21T14:04:11;8.65;;;3.38;;
13611;SDS011;6877;51.436;6.774;2024-02-21T14:06:38;11.90;;;3.13;;
13611;SDS011;6877;51.436;6.774;2024-02-21T14:09:09;9.35;;;4.03;;
13611;SDS011;6877;51.436;6.774;2024-02-21T14:11:36;6.05;;;3.70;;
13611;SDS011;6877;51.436;6.774;2024-02-21T14:14:04;9.93;;;3.33;;
13611;SDS011;6877;51.436;6.774;2024-02-21T14:16:36;9.32;;;4.50;;
13611;SDS011;6877;51.436;6.774;2024-02-21T14:19:02;7.15;;;3.53;;
13611;SDS011;6877;51.436;6.774;2024-02-21T14:21:28;7.15;;;3.35;;
13611;SDS011;6877;51.436;6.774;2024-02-21T14:23:55;9.10;;;4.05;;
13611;SDS011;6877;51.436;6.774;2024-02-21T14:26:22;7.57;;;3.38;;
13611;SDS011;6877;51.436;6.774;2024-02-21T14:28:49;12.93;;;4.03;;
13611;SDS011;6877;51.436;6.774;2024-02-21T14:31:15;6.65;;;3.97;;
13611;SDS011;6877;51.436;6.774;2024-02-21T14:33:43;7.07;;;3.80;;
13611;SDS011;6877;51.436;6.774;2024-02-21T14:36:09;9.68;;;3.58;;
13611;SDS011;6877;51.436;6.774;2024-02-21T14:38:42;10.32;;;3.83;;
13611;SDS011;6877;51.436;6.774;2024-02-21T14:41:10;16.88;;;3.33;;
13611;SDS011;6877;51.436;6.774;2024-02-21T14:43:39;5.90;;;3.05;;
13611;SDS011;6877;51.436;6.774;2024-02-21T14:46:06;10.15;;;4.43;;
13611;SDS011;6877;51.436;6.774;2024-02-21T14:48:32;12.68;;;3.95;;
13611;SDS011;6877;51.436;6.774;2024-02-21T14:51:04;8.32;;;4.22;;
13611;SDS011;6877;51.436;6.774;2024-02-21T14:53:35;9.27;;;3.72;;
13611;SDS011;6877;51.436;6.774;2024-02-21T14:56:12;9.15;;;3.47;;
13611;SDS011;6877;51.436;6.774;2024-02-21T14:58:41;10.75;;;3.53;;
13611;SDS011;6877;51.436;6.774;2024-02-21T15:01:13;7.43;;;3.30;;
13611;SDS011;6877;51.436;6.774;2024-02-21T15:03:44;8.63;;;3.63;;
13611;SDS011;6877;51.436;6.774;2024-02-21T15:06:10;9.93;;;3.75;;